createdAt,value
2022-12-13T00:01:12.947Z,94311.20
2022-12-13T00:03:39.364Z,94313.44
2022-12-13T00:06:05.685Z,94315.37
2022-12-13T00:08:32.131Z,94321.02
2022-12-13T00:10:58.441Z,94324.94
2022-12-13T00:13:24.798Z,94319.90
2022-12-13T00:15:51.180Z,94313.44
2022-12-13T00:18:17.565Z,94327.81
2022-12-13T00:20:43.910Z,94330.58
2022-12-13T00:23:10.293Z,94331.21
2022-12-13T00:25:36.676Z,94328.47
2022-12-13T00:28:03.054Z,94330.87
2022-12-13T00:30:29.466Z,94334.75
2022-12-13T00:32:55.792Z,94336.98
2022-12-13T00:35:22.139Z,94333.80
2022-12-13T00:37:48.524Z,94330.40
2022-12-13T00:40:14.898Z,94331.21
2022-12-13T00:42:41.282Z,94331.05
2022-12-13T00:45:07.632Z,94335.58
2022-12-13T00:47:34.009Z,94336.22
2022-12-13T00:50:00.357Z,94336.22
2022-12-13T00:52:26.741Z,94339.14
2022-12-13T00:54:53.079Z,94337.85
2022-12-13T00:57:19.473Z,94337.85
2022-12-13T00:59:45.812Z,94333.80
2022-12-13T01:02:12.197Z,94334.92
2022-12-13T01:04:38.560Z,94336.22
2022-12-13T01:07:04.938Z,94343.31
2022-12-13T01:09:31.282Z,94343.49
2022-12-13T01:11:57.677Z,94343.49
2022-12-13T01:14:24.013Z,94340.91
2022-12-13T01:16:50.436Z,94341.25
2022-12-13T01:19:17.285Z,94344.31
2022-12-13T01:21:43.673Z,94349.79
2022-12-13T01:24:10.024Z,94353.66
2022-12-13T01:26:36.406Z,94350.13
2022-12-13T01:29:02.746Z,94351.08
2022-12-13T01:31:29.133Z,94350.61
2022-12-13T01:33:55.505Z,94349.31
2022-12-13T01:36:27.977Z,94349.48
2022-12-13T01:38:48.256Z,94347.84
2022-12-13T01:41:17.411Z,94343.49
2022-12-13T01:43:40.985Z,94340.14
2022-12-13T01:46:07.411Z,94337.85
2022-12-13T01:48:33.714Z,94342.03
2022-12-13T01:51:00.107Z,94343.20
2022-12-13T01:53:26.448Z,94339.96
2022-12-13T01:55:52.849Z,94342.25
2022-12-13T01:58:19.192Z,94344.63
2022-12-13T02:00:45.578Z,94340.27
2022-12-13T02:03:21.076Z,94338.16
2022-12-13T02:05:38.357Z,94341.56
2022-12-13T02:08:04.759Z,94354.48
2022-12-13T02:10:31.068Z,94355.25
2022-12-13T02:12:57.412Z,94353.36
2022-12-13T02:15:23.830Z,94346.73
2022-12-13T02:17:50.173Z,94351.25
2022-12-13T02:20:21.987Z,94347.37
2022-12-13T02:22:42.947Z,94342.67
2022-12-13T02:25:09.332Z,94344.31
2022-12-13T02:27:42.588Z,94343.49
2022-12-13T02:30:02.068Z,94345.26
2022-12-13T02:32:28.413Z,94353.17
2022-12-13T02:34:54.791Z,94353.30
2022-12-13T02:37:21.136Z,94346.72
2022-12-13T02:39:47.536Z,94354.78
2022-12-13T02:42:21.928Z,94354.46
2022-12-13T02:44:40.265Z,94362.53
2022-12-13T02:47:06.606Z,94365.59
2022-12-13T02:49:32.989Z,94358.81
2022-12-13T02:51:59.330Z,94365.59
2022-12-13T02:54:25.811Z,94362.53
2022-12-13T02:56:52.161Z,94360.28
2022-12-13T02:59:18.547Z,94360.28
2022-12-13T03:01:44.918Z,94362.40
2022-12-13T03:04:11.305Z,94369.33
2022-12-13T03:06:37.653Z,94368.52
2022-12-13T03:09:04.041Z,94366.58
2022-12-13T03:11:30.384Z,94380.01
2022-12-13T03:13:56.780Z,94379.50
2022-12-13T03:16:23.595Z,94365.30
2022-12-13T03:18:49.512Z,94366.11
2022-12-13T03:21:15.856Z,94373.20
2022-12-13T03:23:42.276Z,94368.37
2022-12-13T03:26:08.620Z,94365.11
2022-12-13T03:28:35.021Z,94369.80
2022-12-13T03:31:01.421Z,94369.46
2022-12-13T03:33:27.755Z,94362.05
2022-12-13T03:35:54.098Z,94366.75
2022-12-13T03:38:22.760Z,94367.38
2022-12-13T03:40:46.833Z,94363.50
2022-12-13T03:43:13.215Z,94368.03
2022-12-13T03:45:39.560Z,94374.50
2022-12-13T03:48:05.979Z,94372.39
2022-12-13T03:50:32.325Z,94379.19
2022-12-13T03:52:58.741Z,94385.17
2022-12-13T03:55:25.089Z,94381.30
2022-12-13T03:57:51.473Z,94379.31
2022-12-13T04:00:17.813Z,94393.22
2022-12-13T04:02:44.275Z,94393.40
2022-12-13T04:05:10.570Z,94393.05
2022-12-13T04:07:36.965Z,94398.70
2022-12-13T04:10:03.302Z,94392.23
2022-12-13T04:12:29.695Z,94402.26
2022-12-13T04:14:56.041Z,94399.98
2022-12-13T04:17:22.428Z,94406.92
2022-12-13T04:19:48.774Z,94411.61
2022-12-13T04:22:19.019Z,94412.43
2022-12-13T04:24:41.504Z,94419.36
2022-12-13T04:27:07.884Z,94428.75
2022-12-13T04:29:35.121Z,94439.72
2022-12-13T04:32:00.647Z,94437.45
2022-12-13T04:34:30.635Z,94439.22
2022-12-13T04:36:53.417Z,94441.48
2022-12-13T04:39:22.799Z,94447.59
2022-12-13T04:41:46.145Z,94455.70
2022-12-13T04:44:27.841Z,94455.83
2022-12-13T04:46:38.940Z,94461.97
2022-12-13T04:49:05.279Z,94456.45
2022-12-13T04:51:31.754Z,94459.57
2022-12-13T04:53:58.101Z,94464.27
2022-12-13T04:56:24.491Z,94466.63
2022-12-13T04:58:50.830Z,94465.39
2022-12-13T05:01:17.266Z,94467.32
2022-12-13T05:03:43.614Z,94469.74
2022-12-13T05:06:26.686Z,94471.09
2022-12-13T05:08:36.344Z,94472.86
2022-12-13T05:11:02.690Z,94475.97
2022-12-13T05:13:29.079Z,94470.96
2022-12-13T05:15:55.464Z,94472.57
2022-12-13T05:18:21.849Z,94473.73
2022-12-13T05:20:48.197Z,94487.18
2022-12-13T05:23:14.579Z,94481.67
2022-12-13T05:25:40.926Z,94484.89
2022-12-13T05:28:26.875Z,94491.34
2022-12-13T05:30:33.788Z,94488.13
2022-12-13T05:33:00.214Z,94486.70
2022-12-13T05:35:26.554Z,94492.19
2022-12-13T05:37:53.979Z,94487.70
2022-12-13T05:40:19.330Z,94490.42
2022-12-13T05:42:45.732Z,94494.95
2022-12-13T05:45:12.091Z,94506.59
2022-12-13T05:47:38.465Z,94512.00
2022-12-13T05:50:04.814Z,94503.83
2022-12-13T05:52:31.420Z,94510.00
2022-12-13T05:55:01.014Z,94513.64
2022-12-13T05:57:23.968Z,94511.58
2022-12-13T05:59:50.315Z,94523.98
2022-12-13T06:02:21.668Z,94520.97
2022-12-13T06:04:43.046Z,94522.95
2022-12-13T06:07:10.880Z,94523.66
2022-12-13T06:09:40.024Z,94526.20
2022-12-13T06:12:02.197Z,94527.02
2022-12-13T06:14:28.541Z,94524.77
2022-12-13T06:16:55.009Z,94527.06
2022-12-13T06:19:21.279Z,94531.95
2022-12-13T06:21:47.656Z,94535.37
2022-12-13T06:24:14.001Z,94537.69
2022-12-13T06:26:40.467Z,94530.94
2022-12-13T06:29:06.817Z,94529.83
2022-12-13T06:31:33.218Z,94528.05
2022-12-13T06:33:59.561Z,94526.01
2022-12-13T06:36:25.943Z,94526.35
2022-12-13T06:38:52.335Z,94526.53
2022-12-13T06:41:18.714Z,94532.58
2022-12-13T06:43:45.074Z,94536.16
2022-12-13T06:46:11.530Z,94542.80
2022-12-13T06:48:37.838Z,94546.87
2022-12-13T06:51:04.230Z,94553.38
2022-12-13T06:53:30.569Z,94546.48
2022-12-13T06:55:56.970Z,94543.78
2022-12-13T06:58:23.314Z,94543.95
2022-12-13T07:00:49.780Z,94542.39
2022-12-13T07:03:16.083Z,94538.55
2022-12-13T07:05:43.351Z,94542.79
2022-12-13T07:08:08.862Z,94543.13
2022-12-13T07:10:35.170Z,94537.52
2022-12-13T07:13:01.521Z,94551.30
2022-12-13T07:15:27.962Z,94526.47
2022-12-13T07:17:54.263Z,94553.96
2022-12-13T07:20:20.691Z,94557.89
2022-12-13T07:22:49.285Z,94568.08
2022-12-13T07:25:27.801Z,94567.13
2022-12-13T07:27:39.781Z,94567.78
2022-12-13T07:30:06.198Z,94568.12
2022-12-13T07:32:32.572Z,94576.71
2022-12-13T07:34:58.965Z,94579.64
2022-12-13T07:37:30.027Z,94581.32
2022-12-13T07:39:51.769Z,94579.38
2022-12-13T07:42:18.109Z,94580.98
2022-12-13T07:44:44.560Z,94583.27
2022-12-13T07:47:10.904Z,94579.04
2022-12-13T07:49:37.288Z,94581.97
2022-12-13T07:52:03.634Z,94582.80
2022-12-13T07:54:30.018Z,94584.39
2022-12-13T07:56:59.794Z,94589.48
2022-12-13T07:59:28.284Z,94589.48
2022-12-13T08:01:49.210Z,94595.65
2022-12-13T08:04:15.609Z,94596.67
2022-12-13T08:06:41.946Z,94590.53
2022-12-13T08:09:08.353Z,94593.12
2022-12-13T08:11:34.786Z,94590.06
2022-12-13T08:14:01.296Z,94540.76
2022-12-13T08:16:29.656Z,94602.23
2022-12-13T08:19:02.072Z,94597.53
2022-12-13T08:21:52.859Z,94600.50
2022-12-13T08:23:46.809Z,94606.64
2022-12-13T08:26:13.178Z,94608.45
2022-12-13T08:28:39.579Z,94614.59
2022-12-13T08:31:06.043Z,94614.59
2022-12-13T08:33:32.324Z,94612.67
2022-12-13T08:36:00.308Z,94586.86
2022-12-13T08:38:26.701Z,94586.86
2022-12-13T08:40:53.041Z,94596.48
2022-12-13T08:43:24.888Z,94591.47
2022-12-13T08:45:45.836Z,94591.64
2022-12-13T08:48:12.210Z,94590.99
2022-12-13T08:50:38.551Z,94582.57
2022-12-13T08:53:04.941Z,94584.06
2022-12-13T08:55:32.137Z,94579.67
2022-12-13T08:57:57.679Z,94568.99
2022-12-13T09:00:24.076Z,94573.39
2022-12-13T09:02:50.470Z,94570.97
2022-12-13T09:05:32.250Z,94562.68
2022-12-13T09:07:43.170Z,94562.68
2022-12-13T09:10:26.808Z,94576.83
2022-12-13T09:12:35.908Z,94570.02
2022-12-13T09:15:02.253Z,94575.36
2022-12-13T09:17:28.762Z,94575.36
2022-12-13T09:19:58.242Z,94569.25
2022-12-13T09:22:33.904Z,94545.38
2022-12-13T09:24:50.036Z,94550.63
2022-12-13T09:27:27.498Z,94550.63
2022-12-13T09:29:40.599Z,94558.23
2022-12-13T09:32:06.988Z,94550.14
2022-12-13T09:34:33.505Z,94547.55
2022-12-13T09:37:01.098Z,94547.55
2022-12-13T09:39:26.040Z,94541.88
2022-12-13T09:41:52.426Z,94536.38
2022-12-13T09:44:31.537Z,94536.38
2022-12-13T09:46:46.669Z,94537.20
2022-12-13T09:49:13.419Z,94537.20
2022-12-13T09:51:43.712Z,94533.00
2022-12-13T09:54:04.306Z,94529.45
2022-12-13T09:56:30.673Z,94535.95
2022-12-13T09:58:57.027Z,94535.14
2022-12-13T10:01:23.594Z,94504.79
2022-12-13T10:03:49.795Z,94528.51
2022-12-13T10:06:22.466Z,94526.25
2022-12-13T10:08:42.515Z,94519.91
2022-12-13T10:11:08.921Z,94519.91
2022-12-13T10:13:35.271Z,94517.46
2022-12-13T10:16:02.264Z,94522.53
2022-12-13T10:18:28.058Z,94499.63
2022-12-13T10:20:54.470Z,94499.63
2022-12-13T10:23:38.711Z,94496.08
2022-12-13T10:25:47.295Z,94496.08
2022-12-13T10:28:13.557Z,94503.44
2022-12-13T10:30:39.944Z,94494.19
2022-12-13T10:33:06.369Z,94495.31
2022-12-13T10:35:32.770Z,94495.31
2022-12-13T10:37:59.122Z,94476.67
2022-12-13T10:40:32.391Z,94458.16
2022-12-13T10:42:51.830Z,94458.16
2022-12-13T10:45:23.121Z,94470.02
2022-12-13T10:47:44.553Z,94454.28
2022-12-13T10:50:10.957Z,94454.28
2022-12-13T10:52:43.093Z,94464.84
2022-12-13T10:55:03.715Z,94447.20
2022-12-13T10:57:30.051Z,94434.19
2022-12-13T10:59:56.436Z,94466.50
2022-12-13T11:02:22.861Z,94456.41
2022-12-13T11:04:49.201Z,94452.36
2022-12-13T11:07:15.545Z,94445.08
2022-12-13T11:09:41.933Z,94444.91
2022-12-13T11:12:09.513Z,94443.56
2022-12-13T11:14:37.680Z,94445.20
2022-12-13T11:17:01.065Z,94448.12
2022-12-13T11:19:27.507Z,94429.95
2022-12-13T11:21:55.087Z,94439.23
2022-12-13T11:24:22.948Z,94421.56
2022-12-13T11:26:49.908Z,94433.23
2022-12-13T11:29:12.912Z,94430.98
2022-12-13T11:31:39.317Z,94426.78
2022-12-13T11:34:05.639Z,94423.99
2022-12-13T11:36:31.987Z,94421.89
2022-12-13T11:38:58.391Z,94432.11
2022-12-13T11:41:32.330Z,94424.01
2022-12-13T11:43:51.150Z,94435.38
2022-12-13T11:46:17.524Z,94442.50
2022-12-13T11:48:43.878Z,94449.50
2022-12-13T11:51:10.221Z,94439.64
2022-12-13T11:53:36.613Z,94430.05
2022-12-13T11:56:02.963Z,94429.54
2022-12-13T12:00:55.763Z,94429.72
2022-12-13T12:03:22.246Z,94428.12
2022-12-13T12:05:48.528Z,94417.91
2022-12-13T12:08:32.387Z,94419.53
2022-12-13T12:10:45.808Z,94426.48
2022-12-13T12:13:07.742Z,94425.36
2022-12-13T12:15:34.163Z,94410.27
2022-12-13T12:18:00.550Z,94420.98
2022-12-13T12:20:26.949Z,94419.52
2022-12-13T12:22:53.358Z,94419.05
2022-12-13T12:25:19.727Z,94416.59
2022-12-13T12:27:46.160Z,94414.14
2022-12-13T12:30:12.498Z,94412.02
2022-12-13T12:32:41.163Z,94417.86
2022-12-13T12:35:05.313Z,94415.59
2022-12-13T12:37:31.727Z,94416.44
2022-12-13T12:39:58.084Z,94423.75
2022-12-13T12:42:24.489Z,94422.45
2022-12-13T12:44:50.874Z,94427.75
2022-12-13T12:49:43.667Z,94423.09
2022-12-13T12:52:10.076Z,94428.94
2022-12-13T12:54:36.474Z,94431.02
2022-12-13T12:57:02.858Z,94427.77
2022-12-13T12:59:29.212Z,94439.14
2022-12-13T13:01:55.672Z,94439.92
2022-12-13T13:04:22.006Z,94439.16
2022-12-13T13:06:49.309Z,94444.02
2022-12-13T13:09:14.733Z,94452.77
2022-12-13T13:11:43.315Z,94452.28
2022-12-13T13:14:07.479Z,94455.52
2022-12-13T13:16:33.881Z,94458.45
2022-12-13T13:19:00.236Z,94461.23
2022-12-13T13:21:26.669Z,94464.47
2022-12-13T13:23:53.010Z,94467.37
2022-12-13T13:26:31.413Z,94475.19
2022-12-13T13:28:45.756Z,94475.33
2022-12-13T13:31:12.183Z,94478.08
2022-12-13T13:33:38.497Z,94469.47
2022-12-13T13:36:04.900Z,94476.75
2022-12-13T13:38:31.240Z,94490.39
2022-12-13T13:40:57.631Z,94498.32
2022-12-13T13:43:27.243Z,94502.70
2022-12-13T13:45:50.395Z,94511.11
2022-12-13T13:48:16.751Z,94498.31
2022-12-13T13:50:43.143Z,94493.77
2022-12-13T13:53:09.495Z,94487.43
2022-12-13T13:55:35.906Z,94477.23
2022-12-13T13:58:10.685Z,94481.94
2022-12-13T14:00:28.686Z,94487.12
2022-12-13T14:02:55.101Z,94484.20
2022-12-13T14:05:22.435Z,94474.80
2022-12-13T14:07:47.832Z,94478.99
2022-12-13T14:10:14.253Z,94476.09
2022-12-13T14:12:40.662Z,94469.75
2022-12-13T14:15:07.080Z,94427.23
2022-12-13T14:17:33.454Z,94445.73
2022-12-13T14:19:59.910Z,94443.81
2022-12-13T14:22:26.180Z,94451.41
2022-12-13T14:24:52.606Z,94449.47
2022-12-13T14:27:18.967Z,94455.47
2022-12-13T14:29:48.337Z,94477.36
2022-12-13T14:32:26.778Z,94475.07
2022-12-13T14:34:38.126Z,94467.30
2022-12-13T14:37:04.472Z,94466.33
2022-12-13T14:39:30.863Z,94466.17
2022-12-13T14:41:57.655Z,94447.52
2022-12-13T14:44:23.595Z,94426.76
2022-12-13T14:46:50.063Z,94427.59
2022-12-13T14:49:16.399Z,94436.30
2022-12-13T14:51:42.752Z,94457.88
2022-12-13T14:54:09.130Z,94465.17
2022-12-13T14:56:35.582Z,94464.34
2022-12-13T14:59:01.988Z,94459.48
2022-12-13T15:01:29.293Z,94464.02
2022-12-13T15:03:54.879Z,94468.53
2022-12-13T15:06:21.159Z,94458.83
2022-12-13T15:08:47.546Z,94466.56
2022-12-13T15:11:13.963Z,94468.05
2022-12-13T15:13:40.360Z,94465.24
2022-12-13T15:16:10.892Z,94475.34
2022-12-13T15:18:33.444Z,94482.65
2022-12-13T15:20:59.792Z,94485.58
2022-12-13T15:23:26.608Z,94484.56
2022-12-13T15:25:52.553Z,94485.03
2022-12-13T15:28:21.783Z,94484.71
2022-12-13T15:30:45.289Z,94505.61
2022-12-13T15:33:11.637Z,94501.72
2022-12-13T15:35:38.070Z,94497.66
2022-12-13T15:38:04.406Z,94516.62
2022-12-13T15:40:30.784Z,94520.03
2022-12-13T15:42:57.139Z,94521.19
2022-12-13T15:45:23.630Z,94521.19
2022-12-13T15:47:49.972Z,94524.89
2022-12-13T15:50:16.496Z,94511.39
2022-12-13T15:52:44.467Z,94505.09
2022-12-13T15:55:09.285Z,94516.44
2022-12-13T15:57:35.627Z,94516.44
2022-12-13T16:00:02.047Z,94516.22
2022-12-13T16:02:28.373Z,94502.28
2022-12-13T16:04:54.759Z,94502.28
2022-12-13T16:07:21.093Z,94501.97
2022-12-13T16:09:47.490Z,94501.97
2022-12-13T16:12:13.836Z,94498.41
2022-12-13T16:14:40.224Z,94497.55
2022-12-13T16:17:08.688Z,94493.04
2022-12-13T16:19:32.965Z,94492.67
2022-12-13T16:21:59.318Z,94488.95
2022-12-13T16:24:25.712Z,94492.17
2022-12-13T16:26:52.083Z,94493.35
2022-12-13T16:29:18.476Z,94490.56
2022-12-13T16:31:44.889Z,94496.06
2022-12-13T16:34:11.242Z,94498.82
2022-12-13T16:36:37.592Z,94500.39
2022-12-13T16:39:03.971Z,94498.14
2022-12-13T16:41:30.307Z,94505.61
2022-12-13T16:43:56.687Z,94502.23
2022-12-13T16:47:13.209Z,94491.86
2022-12-13T16:48:49.415Z,94489.97
2022-12-13T16:51:15.795Z,94503.02
2022-12-13T16:53:42.174Z,94503.33
2022-12-13T16:56:08.518Z,94476.80
2022-12-13T16:58:34.914Z,94503.77
2022-12-13T17:01:01.334Z,94512.81
2022-12-13T17:03:28.140Z,94510.91
2022-12-13T17:05:58.628Z,94527.87
2022-12-13T17:08:20.361Z,94527.87
2022-12-13T17:10:46.694Z,94519.37
2022-12-13T17:13:13.102Z,94532.92
2022-12-13T17:15:39.483Z,94538.28
2022-12-13T17:18:06.891Z,94537.59
2022-12-13T17:20:33.284Z,94537.94
2022-12-13T17:22:59.651Z,94530.95
2022-12-13T17:25:25.989Z,94538.25
2022-12-13T17:27:52.372Z,94537.59
2022-12-13T17:30:18.712Z,94537.59
2022-12-13T17:32:45.098Z,94527.38
2022-12-13T17:35:14.830Z,94519.77
2022-12-13T17:37:37.815Z,94527.55
2022-12-13T17:40:04.156Z,94520.83
2022-12-13T17:42:30.549Z,94520.83
2022-12-13T17:44:56.919Z,94521.30
2022-12-13T17:47:23.301Z,94521.30
2022-12-13T17:49:49.650Z,94521.00
2022-12-13T17:52:16.031Z,94509.38
2022-12-13T17:54:42.378Z,94509.38
2022-12-13T17:57:08.752Z,94525.98
2022-12-13T17:59:38.301Z,94522.40
2022-12-13T18:02:01.483Z,94524.03
2022-12-13T18:04:27.819Z,94504.53
2022-12-13T18:06:54.199Z,94523.52
2022-12-13T18:09:20.539Z,94510.98
2022-12-13T18:11:46.935Z,94510.98
2022-12-13T18:14:13.271Z,94521.06
2022-12-13T18:16:39.661Z,94518.65
2022-12-13T18:19:06.078Z,94502.90
2022-12-13T18:21:32.375Z,94514.11
2022-12-13T18:26:44.021Z,94514.73
2022-12-13T18:29:10.363Z,94485.31
2022-12-13T18:31:36.823Z,94503.20
2022-12-13T18:34:03.118Z,94516.16
2022-12-13T18:36:29.502Z,94520.17
2022-12-13T18:38:55.858Z,94520.17
2022-12-13T18:41:22.245Z,94509.56
2022-12-13T18:43:48.590Z,94530.83
2022-12-13T18:46:15.050Z,94530.83
2022-12-13T18:48:41.309Z,94549.22
2022-12-13T18:51:07.735Z,94544.34
2022-12-13T18:53:34.033Z,94547.58
2022-12-13T18:56:00.414Z,94538.13
2022-12-13T18:58:26.799Z,94535.70
2022-12-13T19:00:53.189Z,94546.38
2022-12-13T19:03:19.567Z,94543.77
2022-12-13T19:05:45.915Z,94547.66
2022-12-13T19:08:12.247Z,94549.77
2022-12-13T19:10:38.635Z,94549.77
2022-12-13T19:13:04.978Z,94540.89
2022-12-13T19:15:31.367Z,94540.89
2022-12-13T19:17:57.700Z,94523.97
2022-12-13T19:20:24.106Z,94523.97
2022-12-13T19:22:50.417Z,94541.66
2022-12-13T19:25:16.809Z,94550.38
2022-12-13T19:27:43.143Z,94554.08
2022-12-13T19:30:09.541Z,94538.67
2022-12-13T19:32:35.890Z,94538.67
2022-12-13T19:35:02.272Z,94533.86
2022-12-13T19:37:28.608Z,94537.65
2022-12-13T19:39:54.998Z,94537.65
2022-12-13T19:42:21.330Z,94542.83
2022-12-13T19:44:47.720Z,94529.55
2022-12-13T19:47:14.065Z,94529.55
2022-12-13T19:49:40.452Z,94523.72
2022-12-13T19:52:06.793Z,94522.42
2022-12-13T19:54:33.206Z,94530.95
2022-12-13T19:57:05.390Z,94530.95
2022-12-13T19:59:25.922Z,94536.74
2022-12-13T20:01:52.370Z,94536.74
2022-12-13T20:04:18.652Z,94547.26
2022-12-13T20:06:44.994Z,94533.02
2022-12-13T20:09:11.384Z,94535.75
2022-12-13T20:11:37.736Z,94533.02
2022-12-13T20:14:04.119Z,94539.74
2022-12-13T20:16:30.503Z,94544.58
2022-12-13T20:18:56.843Z,94535.70
2022-12-13T20:21:23.224Z,94542.97
2022-12-13T20:23:50.007Z,94545.55
2022-12-13T20:26:15.963Z,94546.16
2022-12-13T20:28:42.350Z,94546.16
2022-12-13T20:31:08.763Z,94538.06
2022-12-13T20:33:35.083Z,94540.34
2022-12-13T20:36:23.492Z,94538.70
2022-12-13T20:38:27.855Z,94544.98
2022-12-13T20:40:54.194Z,94544.98
2022-12-13T20:43:20.584Z,94537.56
2022-12-13T20:45:46.943Z,94538.65
2022-12-13T20:48:13.331Z,94527.52
2022-12-13T20:50:39.675Z,94518.25
2022-12-13T20:53:06.070Z,94525.23
2022-12-13T20:55:32.455Z,94526.65
2022-12-13T20:57:58.842Z,94534.93
2022-12-13T21:00:25.279Z,94538.00
2022-12-13T21:02:53.333Z,94540.58
2022-12-13T21:05:20.857Z,94549.11
2022-12-13T21:07:44.327Z,94548.16
2022-12-13T21:10:10.715Z,94547.98
2022-12-13T21:12:37.107Z,94551.70
2022-12-13T21:15:03.452Z,94552.63
2022-12-13T21:17:29.874Z,94553.58
2022-12-13T21:19:56.235Z,94562.62
2022-12-13T21:22:22.609Z,94562.16
2022-12-13T21:24:48.955Z,94554.00
2022-12-13T21:27:15.338Z,94558.22
2022-12-13T21:29:41.676Z,94554.34
2022-12-13T21:32:08.104Z,94556.93
2022-12-13T21:34:34.416Z,94572.09
2022-12-13T21:37:00.798Z,94563.87
2022-12-13T21:39:27.156Z,94564.63
2022-12-13T21:41:53.563Z,94576.74
2022-12-13T21:44:19.913Z,94570.62
2022-12-13T21:49:12.639Z,94555.56
2022-12-13T21:51:43.247Z,94553.92
2022-12-13T21:54:05.371Z,94560.05
2022-12-13T21:56:31.761Z,94553.73
2022-12-13T21:58:58.104Z,94560.52
2022-12-13T22:01:24.534Z,94563.58
2022-12-13T22:03:50.832Z,94569.73
2022-12-13T22:06:17.228Z,94563.55
2022-12-13T22:08:43.574Z,94565.14
2022-12-13T22:11:09.960Z,94557.04
2022-12-13T22:13:36.303Z,94550.09
2022-12-13T22:16:02.785Z,94552.47
2022-12-13T22:18:29.314Z,94550.02
2022-12-13T22:20:55.429Z,94561.30
2022-12-13T22:23:21.776Z,94568.58
2022-12-13T22:25:49.102Z,94570.86
2022-12-13T22:28:15.444Z,94567.92
2022-12-13T22:30:41.824Z,94563.04
2022-12-13T22:33:08.173Z,94567.73
2022-12-13T22:35:34.581Z,94563.86
2022-12-13T22:38:01.785Z,94562.22
2022-12-13T22:40:27.295Z,94560.75
2022-12-13T22:42:53.641Z,94566.39
2022-12-13T22:45:20.027Z,94569.92
2022-12-13T22:47:46.369Z,94575.56
2022-12-13T22:50:13.986Z,94578.44
2022-12-13T22:52:39.122Z,94582.00
2022-12-13T22:55:05.514Z,94570.02
2022-12-13T22:57:31.894Z,94573.42
2022-12-13T22:59:58.274Z,94579.25
2022-12-13T23:02:24.707Z,94576.48
2022-12-13T23:04:51.010Z,94579.55
2022-12-13T23:07:17.350Z,94579.20
2022-12-13T23:09:43.738Z,94577.11
2022-12-13T23:12:10.075Z,94580.99
2022-12-13T23:14:36.457Z,94580.83
2022-12-13T23:17:02.919Z,94583.23
2022-12-13T23:19:41.672Z,94574.03
2022-12-13T23:21:56.722Z,94568.55
2022-12-13T23:24:21.956Z,94571.44
2022-12-13T23:26:48.299Z,94575.66
2022-12-13T23:29:14.685Z,94575.48
2022-12-13T23:31:41.038Z,94584.52
2022-12-13T23:34:07.419Z,94584.17
2022-12-13T23:36:33.763Z,94581.47
2022-12-13T23:39:00.156Z,94573.17
2022-12-13T23:41:32.313Z,94579.17
2022-12-13T23:43:52.880Z,94574.13
2022-12-13T23:46:19.273Z,94582.35
2022-12-13T23:48:45.638Z,94589.63
2022-12-13T23:51:11.984Z,94589.57
2022-12-13T23:53:38.368Z,94591.55
2022-12-13T23:56:04.714Z,94596.72
2022-12-13T23:58:31.110Z,94594.73
